Flight Track Log - Related Links

Times and Time Zones

All times are in EDT time to prevent confusion due to time zone crossing. See the ANA693 flight status page for this flight to view local times or setup timezone preferences in your user account.

Time Position Orientation Groundspeed Altitude Reporting Facility
EDT Latitude Longitude Course Direction KTS MPH feet Rate Location/Type
Sat 08:53:32 PM 35.5420 139.7127 259° West  Level Estimated
Sat 08:54:32 PM 35.5227 139.5872 259° West  Level Estimated
Sat 08:55:32 PM 35.5033 139.4618 259° West  Level Estimated
Sat 08:56:32 PM 35.4837 139.3365 259° West  Level Estimated
Sat 08:57:32 PM 35.4640 139.2112 259° West  Level Estimated
Sat 08:58:32 PM 35.4442 139.0859 259° West  Level Estimated
Sat 08:59:32 PM 35.4243 138.9607 259° West  Level Estimated
Sat 09:00:32 PM 35.4042 138.8356 259° West  Level Estimated
Sat 09:01:32 PM 35.3840 138.7105 259° West  Level Estimated
Sat 09:02:32 PM 35.3637 138.5856 259° West  Level Estimated
Sat 09:03:32 PM 35.3432 138.4606 259° West  Level Estimated
Sat 09:04:32 PM 35.3226 138.3358 259° West  Level Estimated
Sat 09:05:32 PM 35.3019 138.2110 258° West  Level Estimated
Sat 09:06:32 PM 35.2811 138.0862 258° West  Level Estimated
Sat 09:07:32 PM 35.2601 137.9615 258° West  Level Estimated
Sat 09:08:32 PM 35.2390 137.8369 258° West  Level Estimated
Sat 09:09:32 PM 35.2178 137.7124 258° West  Level Estimated
Sat 09:10:32 PM 35.1964 137.5879 258° West  Level Estimated
Sat 09:11:32 PM 35.1749 137.4635 258° West  Level Estimated
Sat 09:12:32 PM 35.1533 137.3391 258° West  Level Estimated
Sat 09:13:32 PM 35.1316 137.2149 258° West  Level Estimated
Sat 09:14:32 PM 35.1097 137.0906 258° West  Level Estimated
Sat 09:15:32 PM 35.0877 136.9665 258° West  Level Estimated
Sat 09:16:32 PM 35.0656 136.8424 258° West  Level Estimated
Sat 09:17:32 PM 35.0434 136.7184 258° West  Level Estimated
Sat 09:18:32 PM 35.0210 136.5944 258° West  Level Estimated
Sat 09:19:32 PM 34.9985 136.4706 257° West  Level Estimated
Sat 09:20:32 PM 34.9759 136.3468 257° West  Level Estimated
Sat 09:21:32 PM 34.9532 136.2230 257° West  Level Estimated
Sat 09:22:32 PM 34.9303 136.0993 257° West  Level Estimated
Sat 09:23:32 PM 34.9073 135.9757 257° West  Level Estimated
Sat 09:24:32 PM 34.8842 135.8522 257° West  Level Estimated
Sat 09:25:32 PM 34.8609 135.7287 257° West  Level Estimated
Sat 09:26:32 PM 34.8375 135.6053 257° West  Level Estimated
Sat 09:27:32 PM 34.8140 135.4820 257° West  Level Estimated
Sat 09:28:32 PM 34.7904 135.3587 257° West  Level Estimated
Sat 09:29:32 PM 34.7667 135.2355 257° West  Level Estimated
Sat 09:30:32 PM 34.7428 135.1124 257° West  Level Estimated
Sat 09:31:32 PM 34.7188 134.9894 257° West  Level Estimated
Sat 09:32:32 PM 34.6947 134.8664 257° West  Level Estimated
Sat 09:33:32 PM 34.6705 134.7435 256° West  Level Estimated
Sat 09:34:32 PM 34.6461 134.6207 256° West  Level Estimated
Sat 09:35:32 PM 34.6216 134.4979 256° West  Level Estimated
Sat 09:36:32 PM 34.5970 134.3753 256° West  Level Estimated
Sat 09:37:32 PM 34.5723 134.2527 256° West  Level Estimated
Sat 09:38:32 PM 34.5474 134.1301 256° West  Level Estimated
Sat 09:39:32 PM 34.5224 134.0077 256° West  Level Estimated
Sat 09:40:32 PM 34.4973 133.8853 256° West  Level Estimated
Sat 09:41:32 PM 34.4721 133.7630 256° West  Level Estimated
Sat 09:42:32 PM 34.4468 133.6407 256° West  Level Estimated
Sat 09:43:32 PM 34.4213 133.5186 256° West  Level Estimated
Sat 09:44:32 PM 34.3957 133.3965 256° West  Level Estimated
Sat 09:45:32 PM 34.3700 133.2745 256° West  Level Estimated
Sat 09:46:32 PM 34.3442 133.1525 256° West  Level Estimated
Sat 09:47:32 PM 34.3182 133.0307 256° West  Level Estimated
Sat 09:48:32 PM 34.2922 132.9089 255° West  Level Estimated
Sat 09:49:32 PM 34.2660 132.7871 255° West  Level Estimated
Sat 09:50:32 PM 34.2397 132.6655 255° West  Level Estimated
Sat 09:51:32 PM 34.2132 132.5439 255° West  Level Estimated
Sat 09:52:32 PM 34.1867 132.4224 255° West  Level Estimated
Sat 09:53:32 PM 34.1600 132.3010 255° West  Level Estimated
Sat 09:54:32 PM 34.1332 132.1797 255° West  Level Estimated
Sat 09:55:32 PM 34.1063 132.0584 255° West  Level Estimated
Sat 09:56:32 PM 34.0793 131.9373 255° West  Level Estimated
Sat 09:57:32 PM 34.0521 131.8161 255° West  Level Estimated
Sat 09:58:32 PM 34.0249 131.6951 255° West  Level Estimated
Sat 09:59:32 PM 33.9975 131.5742 255° West  Level Estimated
Sat 10:00:32 PM 33.9700 131.4533 255° West  Level Estimated
Sat 10:01:32 PM 33.9424 131.3325 255° West  Level Estimated
Sat 10:02:32 PM 33.9146 131.2118 74° East  Level Estimated
Sat 10:03:32 PM 33.9424 131.3325 255° West  Level Estimated
Sat 10:04:32 PM 33.9146 131.2118 74° East  Level Estimated
Sat 10:05:32 PM 33.9424 131.3325 255° West  Level Estimated
Sat 10:06:32 PM 33.9146 131.2118 74° East  Level Estimated
Sat 10:07:32 PM 33.9424 131.3325 255° West  Level Estimated
Sat 10:08:32 PM 33.9146 131.2118 74° East  Level Estimated
Sat 10:09:32 PM 33.9424 131.3325 255° West  Level Estimated
Sat 10:10:32 PM 33.9146 131.2118 74° East  Level Estimated
Sat 10:11:32 PM 33.9424 131.3325 255° West  Level Estimated
Sat 10:12:32 PM 33.9146 131.2118 255° West  Level Estimated

Login

Don't have an account? Register now (free) for customized features, flight alerts, and more!